Time;durP1;ratioP1;P1;durP2;ratioP2;P2;SDS_P1;SDS_P2;PMS_P1;PMS_P2;Temp;Humidity;BMP_temperature;BMP_pressure;BME280_temperature;BME280_humidity;BME280_pressure;Samples;Min_cycle;Max_cycle;Signal;HPM_P1;HPM_P2
2021/12/20 00:10:59;;;;;;;6.4;10.6;;;;;;;1.4;80.5;98450;;;;
2021/12/20 00:21:59;;;;;;;6.4;10.6;;;;;;;1.4;80.7;98470;;;;
2021/12/20 00:31:59;;;;;;;6.4;10.6;;;;;;;1.3;80.5;98480;;;;
2021/12/20 00:41:59;;;;;;;7.3;13.5;;;;;;;1.3;80.3;98480;;;;
2021/12/20 00:52:59;;;;;;;7.3;13.5;;;;;;;1.3;80.4;98480;;;;
2021/12/20 01:02:59;;;;;;;7.3;13.5;;;;;;;1.3;80.2;98480;;;;
2021/12/20 01:13:00;;;;;;;6.5;11.5;;;;;;;1.3;80.2;98480;;;;
2021/12/20 01:22:59;;;;;;;6.5;11.5;;;;;;;1.3;80.3;98470;;;;
2021/12/20 01:33:59;;;;;;;6.5;11.5;;;;;;;1.4;80.3;98470;;;;
2021/12/20 01:44:59;;;;;;;8.2;12.4;;;;;;;1.4;80.3;98470;;;;
2021/12/20 01:54:59;;;;;;;8.2;12.4;;;;;;;1.3;79.8;98480;;;;
2021/12/20 02:05:06;;;;;;;8.2;12.4;;;;;;;1.4;79.3;98470;;;;
2021/12/20 02:15:59;;;;;;;7.1;11.8;;;;;;;1.4;78.8;98480;;;;
2021/12/20 02:26:00;;;;;;;7.1;11.8;;;;;;;1.4;78.5;98480;;;;
2021/12/20 02:46:02;;;;;;;7.3;12.7;;;;;;;1.5;78.6;98480;;;;
2021/12/20 02:55:59;;;;;;;7.3;12.7;;;;;;;1.5;79.1;98490;;;;
2021/12/20 03:07:00;;;;;;;7.3;12.7;;;;;;;1.4;78.6;98500;;;;
2021/12/20 03:16:59;;;;;;;7.6;13.3;;;;;;;1.4;78.7;98490;;;;
2021/12/20 03:27:59;;;;;;;7.6;13.3;;;;;;;1.3;78.3;98490;;;;
2021/12/20 03:38:59;;;;;;;7.6;13.3;;;;;;;1.3;78.5;98490;;;;
2021/12/20 03:49:59;;;;;;;6.1;9.9;;;;;;;1.3;78.7;98490;;;;
2021/12/20 04:00:59;;;;;;;6.1;9.9;;;;;;;1.3;78.6;98480;;;;
2021/12/20 04:11:59;;;;;;;6.5;10.1;;;;;;;1.3;79;98470;;;;
2021/12/20 04:21:59;;;;;;;6.5;10.1;;;;;;;1.3;79.4;98480;;;;
2021/12/20 04:31:59;;;;;;;6.5;10.1;;;;;;;1.2;79.5;98490;;;;
2021/12/20 04:42:59;;;;;;;7;10.1;;;;;;;1.2;79.5;98480;;;;
2021/12/20 04:52:59;;;;;;;7;10.1;;;;;;;1.2;79.4;98500;;;;
2021/12/20 05:02:59;;;;;;;7;10.1;;;;;;;1.2;79.1;98510;;;;
2021/12/20 05:12:59;;;;;;;6.5;9.5;;;;;;;1.2;78.8;98520;;;;
2021/12/20 05:23:59;;;;;;;6.5;9.5;;;;;;;1.2;78.9;98510;;;;
2021/12/20 05:33:59;;;;;;;6.5;9.5;;;;;;;1.1;79.4;98510;;;;
2021/12/20 05:44:59;;;;;;;6.2;9.7;;;;;;;1.1;79.6;98510;;;;
2021/12/20 05:54:59;;;;;;;6.2;9.7;;;;;;;1.1;79.6;98530;;;;
2021/12/20 06:05:59;;;;;;;6.2;9.7;;;;;;;1.1;80.4;98540;;;;
2021/12/20 06:17:00;;;;;;;5.7;8.4;;;;;;;1;80.8;98550;;;;
2021/12/20 06:26:59;;;;;;;5.7;8.4;;;;;;;1;80.9;98570;;;;
2021/12/20 06:36:59;;;;;;;5.7;8.4;;;;;;;1;80.9;98580;;;;
2021/12/20 06:46:59;;;;;;;6;9.7;;;;;;;1;81.8;98590;;;;
2021/12/20 06:56:59;;;;;;;6;9.7;;;;;;;1;81.7;98600;;;;
2021/12/20 07:07:59;;;;;;;6;9.7;;;;;;;1;82;98620;;;;
2021/12/20 07:17:59;;;;;;;6.3;11.4;;;;;;;1;82.4;98620;;;;
2021/12/20 07:27:59;;;;;;;6.3;11.4;;;;;;;1;82.4;98620;;;;
2021/12/20 07:39:00;;;;;;;6.3;11.4;;;;;;;1;82.1;98630;;;;
2021/12/20 07:49:59;;;;;;;9.2;13.8;;;;;;;1.2;81;98620;;;;
2021/12/20 07:59:59;;;;;;;9.2;13.8;;;;;;;1.3;80.6;98620;;;;
2021/12/20 08:10:59;;;;;;;8.3;11.4;;;;;;;1.2;80.3;98630;;;;
2021/12/20 08:20:59;;;;;;;8.3;11.4;;;;;;;1.2;80.3;98640;;;;
2021/12/20 08:32:01;;;;;;;8.3;11.4;;;;;;;1.3;80.3;98650;;;;
2021/12/20 08:41:59;;;;;;;8.6;13.7;;;;;;;1.3;80.5;98670;;;;
2021/12/20 08:52:59;;;;;;;8.6;13.7;;;;;;;1.3;80.5;98670;;;;
2021/12/20 09:03:59;;;;;;;8.6;13.7;;;;;;;1.4;80.4;98680;;;;
2021/12/20 09:13:59;;;;;;;8.8;14;;;;;;;1.5;80.2;98680;;;;
2021/12/20 09:24:00;;;;;;;8.8;14;;;;;;;1.6;79.6;98680;;;;
2021/12/20 09:33:59;;;;;;;8.8;14;;;;;;;1.5;78.8;98670;;;;
2021/12/20 09:45:00;;;;;;;9.3;11.8;;;;;;;1.6;78.7;98680;;;;
2021/12/20 09:55:59;;;;;;;9.3;11.8;;;;;;;1.7;78.7;98680;;;;
2021/12/20 10:07:01;;;;;;;9.3;11.8;;;;;;;1.7;78.6;98690;;;;
2021/12/20 10:18:00;;;;;;;8.8;13.8;;;;;;;1.7;78.1;98690;;;;
2021/12/20 10:27:59;;;;;;;8.8;13.8;;;;;;;1.9;77;98680;;;;
2021/12/20 10:38:59;;;;;;;6.8;9.9;;;;;;;1.9;76.6;98690;;;;
2021/12/20 10:48:59;;;;;;;6.8;9.9;;;;;;;1.9;75.9;98690;;;;
2021/12/20 10:58:59;;;;;;;6.8;9.9;;;;;;;2.1;76;98680;;;;
2021/12/20 11:09:07;;;;;;;6;9.4;;;;;;;2.2;76.6;98680;;;;
2021/12/20 11:18:59;;;;;;;6;9.4;;;;;;;1.9;78.2;98700;;;;
2021/12/20 11:29:59;;;;;;;6;9.4;;;;;;;1.5;79.2;98710;;;;
2021/12/20 11:39:59;;;;;;;6;9.7;;;;;;;1.5;79.8;98700;;;;
2021/12/20 11:49:59;;;;;;;6;9.7;;;;;;;1.6;79.4;98690;;;;
2021/12/20 11:59:59;;;;;;;6;9.7;;;;;;;1.7;79.1;98700;;;;
2021/12/20 12:10:59;;;;;;;5.8;8.2;;;;;;;1.3;81.6;98710;;;;
2021/12/20 12:21:59;;;;;;;5.8;8.2;;;;;;;1.2;80.5;98710;;;;
2021/12/20 12:32:59;;;;;;;5.8;8.2;;;;;;;1.4;77.7;98700;;;;
2021/12/20 12:43:59;;;;;;;4.9;8.1;;;;;;;1.4;77.2;98710;;;;
2021/12/20 12:55:02;;;;;;;4.9;8.1;;;;;;;1.4;78.1;98700;;;;
2021/12/20 13:05:59;;;;;;;4.9;8.1;;;;;;;1.3;78.6;98710;;;;
2021/12/20 13:17:02;;;;;;;5.8;10.8;;;;;;;1.3;78.3;98730;;;;
2021/12/20 13:27:59;;;;;;;5.8;10.8;;;;;;;1.2;78.6;98740;;;;
2021/12/20 13:37:59;;;;;;;5.8;10.8;;;;;;;1.3;78;98750;;;;
2021/12/20 13:47:59;;;;;;;6.2;10.2;;;;;;;1.3;77.9;98760;;;;
2021/12/20 13:58:59;;;;;;;6.2;10.2;;;;;;;1.2;79.3;98770;;;;
2021/12/20 14:08:59;;;;;;;8;13;;;;;;;1.1;79.6;98780;;;;
2021/12/20 14:19:59;;;;;;;8;13;;;;;;;1.1;79.2;98790;;;;
2021/12/20 14:29:59;;;;;;;8;13;;;;;;;1.1;79.4;98790;;;;
2021/12/20 14:40:01;;;;;;;8.4;11.4;;;;;;;1;80.5;98780;;;;
2021/12/20 14:50:05;;;;;;;8.4;11.4;;;;;;;0.9;81.1;98780;;;;
2021/12/20 14:59:59;;;;;;;8.4;11.4;;;;;;;1;79.9;98790;;;;
2021/12/20 15:10:59;;;;;;;9.8;15.2;;;;;;;1;78.7;98790;;;;
2021/12/20 15:20:59;;;;;;;9.8;15.2;;;;;;;1;78.4;98790;;;;
2021/12/20 15:31:59;;;;;;;9.8;15.2;;;;;;;1;78.1;98790;;;;
2021/12/20 15:42:00;;;;;;;7.9;11.8;;;;;;;0.9;77.6;98790;;;;
2021/12/20 15:52:59;;;;;;;7.9;11.8;;;;;;;1;77;98800;;;;
2021/12/20 16:02:59;;;;;;;7.9;11.8;;;;;;;0.9;77.6;98830;;;;
2021/12/20 16:13:59;;;;;;;9.1;15.1;;;;;;;0.8;77.6;98840;;;;
2021/12/20 16:23:59;;;;;;;9.1;15.1;;;;;;;0.8;78.8;98850;;;;
2021/12/20 16:34:59;;;;;;;9.1;15.1;;;;;;;0.7;79.3;98850;;;;
2021/12/20 16:44:59;;;;;;;8.8;14.1;;;;;;;0.6;79.7;98860;;;;
2021/12/20 16:55:59;;;;;;;8.8;14.1;;;;;;;0.6;79.2;98860;;;;
2021/12/20 17:06:59;;;;;;;8.8;14.1;;;;;;;0.7;78;98870;;;;
2021/12/20 17:16:59;;;;;;;9.2;14.6;;;;;;;0.7;77.1;98880;;;;
2021/12/20 17:27:59;;;;;;;9.2;14.6;;;;;;;0.7;76.8;98880;;;;
2021/12/20 17:37:59;;;;;;;11.2;15.4;;;;;;;0.8;76.5;98890;;;;
2021/12/20 17:48:59;;;;;;;11.2;15.4;;;;;;;0.8;76.9;98890;;;;
2021/12/20 17:58:59;;;;;;;11.2;15.4;;;;;;;0.6;78.6;98900;;;;
2021/12/20 18:10:01;;;;;;;13.6;18.6;;;;;;;0.3;80.3;98920;;;;
2021/12/20 18:20:59;;;;;;;13.6;18.6;;;;;;;-0.6;83.5;98980;;;;
2021/12/20 18:30:59;;;;;;;13.6;18.6;;;;;;;-1.2;81.8;99000;;;;
2021/12/20 18:41:59;;;;;;;6.2;11.4;;;;;;;-1.1;82.2;99020;;;;
2021/12/20 18:52:59;;;;;;;6.2;11.4;;;;;;;-0.9;81.3;99030;;;;
2021/12/20 19:03:59;;;;;;;6.2;11.4;;;;;;;-1.1;76.2;99040;;;;
2021/12/20 19:14:59;;;;;;;6.3;12.4;;;;;;;-1.3;73.3;99070;;;;
2021/12/20 19:24:59;;;;;;;6.3;12.4;;;;;;;-1.2;73.4;99080;;;;
2021/12/20 19:34:59;;;;;;;6.3;12.4;;;;;;;-1.3;73;99080;;;;
2021/12/20 19:44:59;;;;;;;4.4;7.6;;;;;;;-1.3;71.3;99100;;;;
2021/12/20 19:54:59;;;;;;;4.4;7.6;;;;;;;-1.4;68.6;99110;;;;
2021/12/20 20:04:59;;;;;;;4.4;7.6;;;;;;;-1.4;69.9;99120;;;;
2021/12/20 20:14:59;;;;;;;2.5;5.6;;;;;;;-1.4;69.7;99140;;;;
2021/12/20 20:25:59;;;;;;;2.5;5.6;;;;;;;-1.4;68.6;99140;;;;
2021/12/20 20:35:59;;;;;;;2.5;5.6;;;;;;;-1.5;67.8;99160;;;;
2021/12/20 20:46:59;;;;;;;3.5;8.3;;;;;;;-1.5;69.1;99170;;;;
2021/12/20 20:56:59;;;;;;;3.5;8.3;;;;;;;-1.7;66.9;99180;;;;
2021/12/20 21:07:59;;;;;;;2.5;7.3;;;;;;;-1.8;68;99180;;;;
2021/12/20 21:18:00;;;;;;;2.5;7.3;;;;;;;-1.8;67.7;99180;;;;
2021/12/20 21:28:59;;;;;;;2.5;7.3;;;;;;;-1.8;68.1;99190;;;;
2021/12/20 21:40:00;;;;;;;2.2;5.1;;;;;;;-1.7;68.6;99200;;;;
2021/12/20 21:49:59;;;;;;;2.2;5.1;;;;;;;-1.7;69.1;99210;;;;
2021/12/20 21:59:59;;;;;;;2.2;5.1;;;;;;;-1.8;68.6;99210;;;;
2021/12/20 22:10:59;;;;;;;3.8;7.9;;;;;;;-1.7;67.9;99210;;;;
2021/12/20 22:20:59;;;;;;;3.8;7.9;;;;;;;-1.6;67.8;99210;;;;
2021/12/20 22:32:00;;;;;;;3.8;7.9;;;;;;;-1.5;68.5;99210;;;;
2021/12/20 22:42:59;;;;;;;7;13.2;;;;;;;-1.5;69.1;99210;;;;
2021/12/20 22:52:59;;;;;;;7;13.2;;;;;;;-1.4;69.1;99220;;;;
2021/12/20 23:03:00;;;;;;;7;13.2;;;;;;;-1.4;70.4;99220;;;;
2021/12/20 23:14:16;;;;;;;9.1;16.4;;;;;;;-1.4;72.8;99230;;;;
2021/12/20 23:24:59;;;;;;;9.1;16.4;;;;;;;-1.3;74.3;99230;;;;
2021/12/20 23:34:59;;;;;;;9.1;16.4;;;;;;;-1.2;75.3;99230;;;;
2021/12/20 23:44:59;;;;;;;9.5;16.4;;;;;;;-1.3;76.8;99250;;;;
2021/12/20 23:55:59;;;;;;;9.5;16.4;;;;;;;-1.3;75.9;99250;;;;
